Time;durP1;ratioP1;P1;durP2;ratioP2;P2;SDS_P1;SDS_P2;PMS_P1;PMS_P2;Temp;Humidity;BMP_temperature;BMP_pressure;BME280_temperature;BME280_humidity;BME280_pressure;Samples;Min_cycle;Max_cycle;Signal;HPM_P1;HPM_P2
2021/10/24 00:01:19;;;;;;;1.63;1.37;;;7.20;98.20;;;;;;5006533;28;20474;-76
2021/10/24 00:03:46;;;;;;;1.60;1.37;;;7.20;98.20;;;;;;5020420;28;21001;-76
2021/10/24 00:06:14;;;;;;;1.60;1.30;;;7.20;98.20;;;;;;5012968;28;20479;-76
2021/10/24 00:08:41;;;;;;;1.60;1.40;;;7.20;98.20;;;;;;5033432;28;20915;-76
2021/10/24 00:11:07;;;;;;;1.60;1.30;;;7.20;98.20;;;;;;5017629;28;20482;-77
2021/10/24 00:13:36;;;;;;;1.60;1.30;;;7.20;98.20;;;;;;5035597;28;20472;-76
2021/10/24 00:16:03;;;;;;;1.60;1.27;;;7.20;98.20;;;;;;5017520;28;20467;-76
2021/10/24 00:18:29;;;;;;;1.60;1.30;;;7.10;98.20;;;;;;5037590;28;20483;-76
2021/10/24 00:20:57;;;;;;;1.60;1.30;;;7.10;98.20;;;;;;5011713;28;20962;-76
2021/10/24 00:23:24;;;;;;;1.60;1.30;;;7.10;98.20;;;;;;5022849;28;20470;-76
2021/10/24 00:25:51;;;;;;;1.60;1.30;;;7.10;98.20;;;;;;5010359;28;20610;-76
2021/10/24 00:28:18;;;;;;;1.60;1.30;;;7.10;98.20;;;;;;5016316;28;20479;-76
2021/10/24 00:30:46;;;;;;;1.60;1.30;;;7.10;98.20;;;;;;5020333;28;20455;-75
2021/10/24 00:33:13;;;;;;;1.60;1.30;;;7.10;98.20;;;;;;5010980;28;20486;-76
2021/10/24 00:35:40;;;;;;;2.10;1.90;;;7.10;98.20;;;;;;5024436;28;20463;-76
2021/10/24 00:38:07;;;;;;;1.60;1.30;;;7.10;98.20;;;;;;5003499;28;20482;-76
2021/10/24 00:40:34;;;;;;;1.60;1.30;;;7.10;98.20;;;;;;5021292;28;20459;-75
2021/10/24 00:43:01;;;;;;;1.60;1.30;;;7.00;98.20;;;;;;5028653;28;20478;-76
2021/10/24 00:45:29;;;;;;;1.60;1.40;;;7.00;98.20;;;;;;5023493;28;20463;-76
2021/10/24 00:47:57;;;;;;;1.60;1.40;;;7.00;98.20;;;;;;5026853;28;20982;-76
2021/10/24 00:50:25;;;;;;;1.60;1.40;;;7.00;98.20;;;;;;5019830;28;21074;-76
2021/10/24 00:52:52;;;;;;;1.60;1.30;;;7.00;98.20;;;;;;5031802;28;20605;-76
2021/10/24 00:55:21;;;;;;;1.70;1.40;;;6.90;98.20;;;;;;5018432;28;20466;-74
2021/10/24 00:57:48;;;;;;;1.60;1.30;;;6.90;98.20;;;;;;5032921;28;20925;-76
2021/10/24 01:00:15;;;;;;;1.60;1.30;;;6.90;98.20;;;;;;5017033;28;20554;-76
2021/10/24 01:02:42;;;;;;;1.60;1.30;;;6.90;98.20;;;;;;5025440;28;20478;-76
2021/10/24 01:05:11;;;;;;;1.60;1.30;;;6.90;98.20;;;;;;5018719;28;20525;-76
2021/10/24 01:07:42;;;;;;;1.60;1.30;;;6.90;98.20;;;;;;5007566;28;20585;-76
2021/10/24 01:10:15;;;;;;;1.60;1.40;;;6.90;98.20;;;;;;5016608;28;20472;-76
2021/10/24 01:12:43;;;;;;;1.60;1.30;;;6.90;98.20;;;;;;5021721;28;20746;-76
2021/10/24 01:15:10;;;;;;;3.50;2.80;;;6.90;98.20;;;;;;5017988;28;20841;-76
2021/10/24 01:17:37;;;;;;;1.60;1.43;;;6.90;98.20;;;;;;5028449;28;20477;-77
2021/10/24 01:20:05;;;;;;;1.60;1.33;;;6.80;98.20;;;;;;5024040;28;20512;-77
2021/10/24 01:22:36;;;;;;;1.60;1.20;;;6.80;98.20;;;;;;5006974;28;20486;-75
2021/10/24 01:25:05;;;;;;;1.60;1.30;;;6.80;98.20;;;;;;5024935;28;20463;-76
2021/10/24 01:27:33;;;;;;;1.60;1.30;;;6.80;98.20;;;;;;5015627;28;20869;-76
2021/10/24 01:30:01;;;;;;;1.67;1.40;;;6.80;98.20;;;;;;5018816;28;20507;-77
2021/10/24 01:32:28;;;;;;;1.67;1.40;;;6.80;98.20;;;;;;5005988;28;20472;-77
2021/10/24 01:34:58;;;;;;;1.70;1.50;;;6.70;98.20;;;;;;5026743;28;20463;-76
2021/10/24 01:37:31;;;;;;;1.60;1.30;;;6.70;98.20;;;;;;5019929;28;20482;-78
2021/10/24 01:39:59;;;;;;;1.60;1.30;;;6.70;98.20;;;;;;5018233;28;20834;-77
2021/10/24 01:42:26;;;;;;;1.60;1.30;;;6.70;98.20;;;;;;5017599;28;20479;-78
2021/10/24 01:44:53;;;;;;;1.60;1.30;;;6.70;98.20;;;;;;5020915;28;20468;-76
2021/10/24 01:47:20;;;;;;;1.67;1.40;;;6.70;98.20;;;;;;5024313;28;20872;-77
2021/10/24 01:49:47;;;;;;;1.60;1.30;;;6.70;98.20;;;;;;5024538;28;20849;-76
2021/10/24 01:52:15;;;;;;;1.70;1.40;;;6.70;98.20;;;;;;5023298;28;20953;-77
2021/10/24 01:54:41;;;;;;;1.63;1.30;;;6.70;98.20;;;;;;5023423;28;20566;-77
2021/10/24 01:57:10;;;;;;;1.67;1.40;;;6.70;98.20;;;;;;5030841;28;20494;-76
2021/10/24 01:59:36;;;;;;;1.60;1.30;;;6.60;98.20;;;;;;5021063;28;20504;-75
2021/10/24 02:02:04;;;;;;;1.60;1.40;;;6.60;98.20;;;;;;5025960;28;20474;-78
2021/10/24 02:04:31;;;;;;;1.60;1.30;;;6.60;98.20;;;;;;5027576;28;20470;-76
2021/10/24 02:06:57;;;;;;;1.60;1.27;;;6.60;98.20;;;;;;5016878;28;20867;-76
2021/10/24 02:09:24;;;;;;;1.70;1.50;;;6.60;98.20;;;;;;5020586;28;20464;-76
2021/10/24 02:11:51;;;;;;;1.67;1.40;;;6.60;98.20;;;;;;5029064;28;20488;-77
2021/10/24 02:14:19;;;;;;;1.60;1.37;;;6.60;98.20;;;;;;5033430;28;20464;-77
2021/10/24 02:16:46;;;;;;;1.60;1.40;;;6.60;98.20;;;;;;5027670;28;20490;-77
2021/10/24 02:19:12;;;;;;;1.60;1.40;;;6.60;98.20;;;;;;5032520;28;20469;-77
2021/10/24 02:21:39;;;;;;;1.60;1.30;;;6.60;98.20;;;;;;5019376;28;20569;-77
2021/10/24 02:24:06;;;;;;;1.93;1.73;;;6.60;98.20;;;;;;5035904;28;20928;-77
2021/10/24 02:26:33;;;;;;;1.60;1.30;;;6.60;98.20;;;;;;5026104;28;20481;-77
2021/10/24 02:29:00;;;;;;;1.63;1.37;;;6.50;98.20;;;;;;5031370;28;20467;-77
2021/10/24 02:31:28;;;;;;;1.60;1.30;;;6.50;98.20;;;;;;5020197;28;20471;-76
2021/10/24 02:33:55;;;;;;;1.60;1.30;;;6.50;98.20;;;;;;5033032;28;20467;-76
2021/10/24 02:36:22;;;;;;;1.70;1.40;;;6.50;98.20;;;;;;5019165;28;20482;-76
2021/10/24 02:38:49;;;;;;;1.63;1.30;;;6.40;98.20;;;;;;5036193;28;20482;-76
2021/10/24 02:41:15;;;;;;;1.67;1.50;;;6.40;98.20;;;;;;5013990;28;20511;-76
2021/10/24 02:43:42;;;;;;;1.60;1.30;;;6.40;98.20;;;;;;5040386;28;20526;-75
2021/10/24 02:46:09;;;;;;;1.70;1.50;;;6.40;98.20;;;;;;5016173;28;20815;-76
2021/10/24 02:48:37;;;;;;;1.60;1.30;;;6.40;98.20;;;;;;5037868;28;20946;-76
2021/10/24 02:51:04;;;;;;;1.60;1.40;;;6.40;98.20;;;;;;5018538;28;20667;-76
2021/10/24 02:53:30;;;;;;;1.63;1.30;;;6.40;98.20;;;;;;5041328;28;20860;-75
2021/10/24 02:55:57;;;;;;;1.67;1.43;;;6.40;98.20;;;;;;5014459;28;20463;-76
2021/10/24 02:58:24;;;;;;;1.60;1.40;;;6.40;98.20;;;;;;5035527;28;20513;-76
2021/10/24 03:00:51;;;;;;;1.70;1.50;;;6.30;98.20;;;;;;5015485;28;20470;-76
2021/10/24 03:03:17;;;;;;;1.60;1.30;;;6.30;98.20;;;;;;5040373;28;20487;-76
2021/10/24 03:05:46;;;;;;;1.67;1.40;;;6.30;98.20;;;;;;5024754;28;20468;-75
2021/10/24 03:08:13;;;;;;;1.60;1.40;;;6.30;98.20;;;;;;5009645;28;20490;-76
2021/10/24 03:10:39;;;;;;;1.60;1.30;;;6.30;98.20;;;;;;5029114;28;20463;-76
2021/10/24 03:13:07;;;;;;;1.70;1.40;;;6.30;98.20;;;;;;5008891;28;20494;-76
2021/10/24 03:15:33;;;;;;;1.60;1.30;;;6.30;98.20;;;;;;5023814;28;20964;-76
2021/10/24 03:18:01;;;;;;;1.60;1.30;;;6.20;98.20;;;;;;5031353;28;20493;-76
2021/10/24 03:20:28;;;;;;;1.70;1.40;;;6.30;98.20;;;;;;5025288;28;20471;-76
2021/10/24 03:22:56;;;;;;;1.93;1.73;;;6.30;98.20;;;;;;5012931;28;20550;-76
2021/10/24 03:25:23;;;;;;;1.60;1.40;;;6.30;98.20;;;;;;5021049;28;20523;-76
2021/10/24 03:27:50;;;;;;;1.60;1.40;;;6.20;98.20;;;;;;5027013;28;20486;-76
2021/10/24 03:30:17;;;;;;;1.70;1.50;;;6.20;98.20;;;;;;5020708;28;20477;-76
2021/10/24 03:32:44;;;;;;;1.60;1.30;;;6.20;98.20;;;;;;5033640;28;20488;-76
2021/10/24 03:35:11;;;;;;;1.67;1.30;;;6.20;98.20;;;;;;5020779;28;20466;-76
2021/10/24 03:37:38;;;;;;;1.60;1.37;;;6.20;98.20;;;;;;5028150;28;20513;-76
2021/10/24 03:40:07;;;;;;;1.60;1.30;;;6.20;98.20;;;;;;5024642;28;20946;-75
2021/10/24 03:42:34;;;;;;;1.60;1.30;;;6.20;98.20;;;;;;5029931;28;20912;-76
2021/10/24 03:45:01;;;;;;;1.63;1.30;;;6.20;98.20;;;;;;5020436;28;20460;-76
2021/10/24 03:47:28;;;;;;;1.60;1.40;;;6.20;98.20;;;;;;5023796;28;20478;-76
2021/10/24 03:49:55;;;;;;;1.63;1.40;;;6.20;98.20;;;;;;5024932;28;20463;-77
2021/10/24 03:52:21;;;;;;;1.60;1.30;;;6.20;98.20;;;;;;5027231;28;21004;-76
2021/10/24 03:54:48;;;;;;;1.60;1.40;;;6.10;98.20;;;;;;5024984;28;20468;-76
2021/10/24 03:57:16;;;;;;;1.60;1.40;;;6.10;98.20;;;;;;5008530;28;20495;-76
2021/10/24 03:59:43;;;;;;;1.60;1.30;;;6.10;98.20;;;;;;5021316;28;20475;-76
2021/10/24 04:02:10;;;;;;;1.60;1.30;;;6.10;98.20;;;;;;5015238;28;20505;-76
2021/10/24 04:04:38;;;;;;;1.60;1.30;;;6.10;98.20;;;;;;5023942;28;20723;-76
2021/10/24 04:07:05;;;;;;;1.60;1.30;;;6.10;98.20;;;;;;5015057;28;20487;-75
2021/10/24 04:09:33;;;;;;;1.73;1.63;;;6.10;98.20;;;;;;5024645;28;20459;-76
2021/10/24 04:12:00;;;;;;;1.60;1.30;;;6.10;98.20;;;;;;5022779;28;20493;-76
2021/10/24 04:14:28;;;;;;;1.60;1.40;;;6.10;98.20;;;;;;5024206;28;20469;-77
2021/10/24 04:16:55;;;;;;;1.67;1.40;;;6.10;98.20;;;;;;5018452;28;20494;-77
2021/10/24 04:19:22;;;;;;;1.60;1.30;;;6.00;98.20;;;;;;5027329;28;20468;-77
2021/10/24 04:21:49;;;;;;;1.60;1.40;;;6.00;98.20;;;;;;5013974;28;20908;-77
2021/10/24 04:24:15;;;;;;;1.60;1.40;;;6.00;98.20;;;;;;5025363;28;20508;-77
2021/10/24 04:26:42;;;;;;;1.70;1.50;;;6.00;98.20;;;;;;5019533;28;20489;-77
2021/10/24 04:29:09;;;;;;;1.60;1.30;;;6.00;98.20;;;;;;5024948;28;20467;-77
2021/10/24 04:31:37;;;;;;;1.70;1.50;;;6.00;98.20;;;;;;5016931;28;20487;-76
2021/10/24 04:34:04;;;;;;;1.63;1.40;;;6.00;98.20;;;;;;5027020;28;20963;-77
2021/10/24 04:36:31;;;;;;;2.47;2.17;;;6.00;98.20;;;;;;5019007;28;20904;-78
2021/10/24 04:38:57;;;;;;;1.63;1.30;;;6.00;98.20;;;;;;5033318;28;20616;-77
2021/10/24 04:41:24;;;;;;;1.60;1.30;;;6.00;98.20;;;;;;5017318;28;21001;-76
2021/10/24 04:43:51;;;;;;;1.60;1.40;;;5.90;98.20;;;;;;5033606;28;20526;-76
2021/10/24 04:46:18;;;;;;;1.60;1.30;;;5.90;98.20;;;;;;5011748;28;20479;-77
2021/10/24 04:48:46;;;;;;;1.63;1.43;;;5.90;98.20;;;;;;5019354;28;20499;-77
2021/10/24 04:51:12;;;;;;;1.60;1.30;;;5.90;98.20;;;;;;5017350;28;20879;-77
2021/10/24 04:53:39;;;;;;;1.60;1.30;;;5.90;98.20;;;;;;5038876;28;20899;-77
2021/10/24 04:56:06;;;;;;;1.70;1.50;;;5.90;98.20;;;;;;5018441;28;20989;-77
2021/10/24 04:58:33;;;;;;;1.60;1.30;;;5.90;98.20;;;;;;5039673;28;20558;-76
2021/10/24 05:00:59;;;;;;;1.60;1.40;;;5.90;98.20;;;;;;5010731;28;20467;-77
2021/10/24 05:03:26;;;;;;;1.60;1.40;;;5.90;98.20;;;;;;5025853;28;20510;-78
2021/10/24 05:05:55;;;;;;;1.60;1.40;;;5.90;98.20;;;;;;5009932;28;20482;-78
2021/10/24 05:08:22;;;;;;;1.60;1.40;;;5.90;98.20;;;;;;5021001;28;20490;-77
2021/10/24 05:10:49;;;;;;;1.60;1.30;;;5.90;98.20;;;;;;5009225;28;20464;-76
2021/10/24 05:13:16;;;;;;;1.60;1.40;;;5.90;98.20;;;;;;5021359;28;20456;-75
2021/10/24 05:15:43;;;;;;;1.60;1.40;;;5.90;98.20;;;;;;5022456;28;20455;-76
2021/10/24 05:18:10;;;;;;;1.60;1.40;;;5.90;98.20;;;;;;5007871;28;20486;-75
2021/10/24 05:20:37;;;;;;;1.60;1.40;;;5.90;98.20;;;;;;5014107;28;20472;-76
2021/10/24 05:23:06;;;;;;;1.63;1.37;;;5.90;98.20;;;;;;5023378;28;20914;-75
2021/10/24 05:25:33;;;;;;;1.63;1.40;;;5.90;98.20;;;;;;5006747;28;20464;-78
2021/10/24 05:27:59;;;;;;;1.63;1.40;;;5.90;98.20;;;;;;5020567;28;20606;-76
2021/10/24 05:30:26;;;;;;;1.60;1.33;;;5.90;98.20;;;;;;5012767;28;20467;-75
2021/10/24 05:32:53;;;;;;;1.60;1.37;;;5.90;98.20;;;;;;5024410;28;21430;-77
2021/10/24 05:35:20;;;;;;;2.27;2.07;;;5.80;98.20;;;;;;5012287;28;20467;-76
2021/10/24 05:37:47;;;;;;;1.70;1.50;;;5.80;98.20;;;;;;5019402;28;20486;-77
2021/10/24 05:40:16;;;;;;;1.60;1.40;;;5.80;98.20;;;;;;5013922;28;20467;-75
2021/10/24 05:42:43;;;;;;;1.60;1.30;;;5.80;98.20;;;;;;5020588;28;21113;-75
2021/10/24 05:45:11;;;;;;;1.60;1.30;;;5.80;98.20;;;;;;5013129;28;20474;-77
2021/10/24 05:47:38;;;;;;;1.70;1.40;;;5.80;98.20;;;;;;4998256;28;20929;-77
2021/10/24 05:50:05;;;;;;;1.60;1.37;;;5.80;98.20;;;;;;5012365;28;20471;-76
2021/10/24 05:52:32;;;;;;;1.60;1.30;;;5.80;98.20;;;;;;5021830;28;20501;-78
2021/10/24 05:54:59;;;;;;;1.60;1.33;;;5.80;98.20;;;;;;5020129;28;20831;-78
2021/10/24 05:57:27;;;;;;;1.60;1.37;;;5.80;98.20;;;;;;5009137;28;20483;-79
2021/10/24 05:59:54;;;;;;;1.60;1.33;;;5.80;98.20;;;;;;5024160;28;20455;-79
2021/10/24 06:02:20;;;;;;;1.60;1.30;;;5.80;98.20;;;;;;5001665;28;20482;-75
2021/10/24 06:04:47;;;;;;;1.60;1.40;;;5.80;98.20;;;;;;5022490;28;20490;-78
2021/10/24 06:07:14;;;;;;;1.63;1.40;;;5.80;98.20;;;;;;5023279;28;20498;-77
2021/10/24 06:09:43;;;;;;;1.60;1.40;;;5.80;98.20;;;;;;5028720;28;20467;-78
2021/10/24 06:12:14;;;;;;;1.60;1.40;;;5.80;98.20;;;;;;5013494;28;20487;-78
2021/10/24 06:14:42;;;;;;;1.60;1.40;;;5.80;98.20;;;;;;5026789;28;20465;-77
2021/10/24 06:17:09;;;;;;;1.60;1.30;;;5.80;98.20;;;;;;5021516;28;20863;-77
2021/10/24 06:19:37;;;;;;;1.60;1.30;;;5.70;98.20;;;;;;5027045;28;20742;-78
2021/10/24 06:22:05;;;;;;;2.10;1.90;;;5.70;98.20;;;;;;5017862;28;20485;-75
2021/10/24 06:24:31;;;;;;;1.60;1.40;;;5.70;98.20;;;;;;5024922;28;20486;-77
2021/10/24 06:26:58;;;;;;;1.60;1.40;;;5.70;98.20;;;;;;5022718;28;20855;-78
2021/10/24 06:29:25;;;;;;;1.67;1.40;;;5.70;98.20;;;;;;5028941;28;20472;-78
2021/10/24 06:31:53;;;;;;;1.60;1.30;;;5.70;98.20;;;;;;5015580;28;21013;-77
2021/10/24 06:34:19;;;;;;;1.60;1.30;;;5.60;98.20;;;;;;5024256;28;20943;-78
2021/10/24 06:36:47;;;;;;;1.60;1.30;;;5.60;98.20;;;;;;5019508;28;22720;-77
2021/10/24 06:39:13;;;;;;;1.60;1.30;;;5.60;98.20;;;;;;5029609;28;20503;-78
2021/10/24 06:41:40;;;;;;;1.60;1.30;;;5.70;98.20;;;;;;5025381;28;20486;-78
2021/10/24 06:44:09;;;;;;;1.60;1.30;;;5.70;98.20;;;;;;5038134;28;20541;-78
2021/10/24 06:46:36;;;;;;;2.23;2.03;;;5.70;98.20;;;;;;5020927;28;20567;-78
2021/10/24 06:49:04;;;;;;;1.63;1.40;;;5.70;98.20;;;;;;5038522;28;20469;-78
2021/10/24 06:51:32;;;;;;;1.60;1.30;;;5.80;98.20;;;;;;5023327;28;20478;-77
2021/10/24 06:54:01;;;;;;;1.63;1.40;;;5.80;98.20;;;;;;5031485;28;21008;-79
2021/10/24 06:56:28;;;;;;;1.60;1.30;;;5.90;98.20;;;;;;5025923;28;20478;-78
2021/10/24 06:58:55;;;;;;;1.60;1.30;;;5.90;98.20;;;;;;5038031;28;20881;-77
2021/10/24 07:01:21;;;;;;;1.60;1.30;;;6.00;98.20;;;;;;5025405;28;20537;-77
2021/10/24 07:03:48;;;;;;;1.60;1.30;;;6.00;98.20;;;;;;5035897;28;20490;-79
2021/10/24 07:06:17;;;;;;;1.60;1.30;;;6.10;98.20;;;;;;5015262;28;20474;-78
2021/10/24 07:08:46;;;;;;;1.60;1.30;;;6.20;98.20;;;;;;5024662;28;20545;-78
2021/10/24 07:11:13;;;;;;;1.60;1.30;;;6.20;98.20;;;;;;5022629;28;20511;-78
2021/10/24 07:13:40;;;;;;;1.70;1.40;;;6.30;98.20;;;;;;5034283;28;20463;-77
2021/10/24 07:16:07;;;;;;;1.60;1.30;;;6.40;98.20;;;;;;5017242;28;20542;-78
2021/10/24 07:18:34;;;;;;;3.50;2.40;;;6.50;98.20;;;;;;5039007;28;20483;-78
2021/10/24 07:21:01;;;;;;;1.60;1.30;;;6.50;98.20;;;;;;5021068;28;21179;-79
2021/10/24 07:23:29;;;;;;;1.60;1.30;;;6.60;98.20;;;;;;5037206;28;20858;-79
2021/10/24 07:25:56;;;;;;;1.60;1.30;;;6.70;98.20;;;;;;5019946;28;20848;-80
2021/10/24 07:28:23;;;;;;;1.63;1.40;;;6.80;98.20;;;;;;5034157;28;20528;-77
2021/10/24 07:30:49;;;;;;;1.60;1.30;;;6.80;98.20;;;;;;5015274;28;20463;-77
2021/10/24 07:33:16;;;;;;;1.70;1.30;;;6.90;98.20;;;;;;5040058;28;20478;-78
2021/10/24 07:35:43;;;;;;;1.60;1.30;;;7.00;98.20;;;;;;5018635;28;20471;-78
2021/10/24 07:38:21;;;;;;;1.60;1.30;;;7.10;98.20;;;;;;5003995;28;20966;-79
2021/10/24 07:40:57;;;;;;;4.60;4.30;;;7.20;98.20;;;;;;5010727;28;20463;-78
2021/10/24 07:43:24;;;;;;;1.60;1.30;;;7.30;98.20;;;;;;5030420;28;20456;-77
2021/10/24 07:45:52;;;;;;;1.67;1.40;;;7.30;98.20;;;;;;5011036;28;20877;-76
2021/10/24 07:48:20;;;;;;;1.60;1.30;;;7.40;98.20;;;;;;5035121;28;20483;-77
2021/10/24 07:50:48;;;;;;;1.60;1.30;;;7.50;98.20;;;;;;5013539;28;20474;-77
2021/10/24 07:53:15;;;;;;;1.67;1.30;;;7.60;98.20;;;;;;5016025;28;20468;-77
2021/10/24 07:55:43;;;;;;;1.60;1.30;;;7.70;98.20;;;;;;5020555;28;20913;-76
2021/10/24 07:58:11;;;;;;;1.60;1.27;;;7.80;98.20;;;;;;5005467;28;20578;-77
2021/10/24 08:00:38;;;;;;;1.63;1.30;;;7.90;98.20;;;;;;5022900;28;20474;-77
2021/10/24 08:03:06;;;;;;;1.60;1.40;;;8.00;98.20;;;;;;5027248;28;21177;-77
2021/10/24 08:05:33;;;;;;;1.60;1.30;;;8.00;98.20;;;;;;5013677;28;20498;-77
2021/10/24 08:08:01;;;;;;;1.60;1.30;;;8.10;98.20;;;;;;5025210;28;20486;-77
2021/10/24 08:10:28;;;;;;;1.70;1.50;;;8.20;98.20;;;;;;5011352;28;20472;-79
2021/10/24 08:12:55;;;;;;;1.67;1.37;;;8.30;98.20;;;;;;5008771;28;20487;-79
2021/10/24 08:15:23;;;;;;;1.60;1.30;;;8.40;98.20;;;;;;5021241;28;20906;-75
2021/10/24 08:17:50;;;;;;;1.60;1.20;;;8.40;98.20;;;;;;5028491;28;20500;-78
2021/10/24 08:20:18;;;;;;;1.63;1.27;;;8.50;98.20;;;;;;5019546;28;20471;-80
2021/10/24 08:22:45;;;;;;;1.60;1.20;;;8.60;98.20;;;;;;5026135;28;20508;-79
2021/10/24 08:25:13;;;;;;;1.60;1.20;;;8.60;98.20;;;;;;5027588;28;20487;-76
2021/10/24 08:27:40;;;;;;;1.60;1.17;;;8.70;98.20;;;;;;5030607;28;20495;-77
2021/10/24 08:30:09;;;;;;;1.60;1.30;;;8.80;98.20;;;;;;5017176;28;20850;-74
2021/10/24 08:32:38;;;;;;;1.60;1.30;;;8.90;98.20;;;;;;5023580;28;20969;-76
2021/10/24 08:35:07;;;;;;;1.60;1.20;;;9.00;98.20;;;;;;5020661;28;20463;-76
2021/10/24 08:37:34;;;;;;;1.60;1.30;;;9.10;98.20;;;;;;5024154;28;20497;-76
2021/10/24 08:40:01;;;;;;;1.60;1.23;;;9.10;98.20;;;;;;5020016;28;20467;-77
2021/10/24 08:42:31;;;;;;;1.60;1.20;;;9.20;98.20;;;;;;5011688;28;20872;-77
2021/10/24 08:44:59;;;;;;;1.60;1.23;;;9.30;98.20;;;;;;5021017;28;21052;-76
2021/10/24 08:47:28;;;;;;;1.60;1.30;;;9.30;98.20;;;;;;5005134;28;20770;-75
2021/10/24 08:49:56;;;;;;;1.60;1.20;;;9.40;98.20;;;;;;5022060;28;20455;-76
2021/10/24 08:52:24;;;;;;;1.60;1.20;;;9.40;98.20;;;;;;5026658;28;20482;-75
2021/10/24 08:54:50;;;;;;;1.60;1.20;;;9.40;98.20;;;;;;5019916;28;20468;-75
2021/10/24 08:57:22;;;;;;;1.60;1.20;;;9.50;98.20;;;;;;5006276;28;20678;-75
2021/10/24 08:59:49;;;;;;;1.70;1.30;;;9.60;98.20;;;;;;5021884;28;20780;-76
2021/10/24 09:02:18;;;;;;;1.60;1.30;;;9.60;98.20;;;;;;5006728;28;20487;-75
2021/10/24 09:04:52;;;;;;;1.60;1.20;;;9.70;98.20;;;;;;5016658;28;20487;-75
2021/10/24 09:07:21;;;;;;;1.60;1.20;;;9.70;98.20;;;;;;5016235;28;20521;-77
2021/10/24 09:09:49;;;;;;;1.60;1.20;;;9.80;98.20;;;;;;5020722;28;20974;-77
2021/10/24 09:12:18;;;;;;;1.60;1.17;;;9.80;98.20;;;;;;5015860;28;20493;-76
2021/10/24 09:14:47;;;;;;;1.60;1.17;;;9.90;98.20;;;;;;5018452;28;20468;-76
2021/10/24 09:17:17;;;;;;;1.60;1.20;;;9.90;97.40;;;;;;5014441;28;20670;-76
2021/10/24 09:19:45;;;;;;;1.60;1.20;;;10.00;98.00;;;;;;5021359;28;20470;-76
2021/10/24 09:22:22;;;;;;;1.70;1.20;;;10.00;98.20;;;;;;5016841;28;20493;-75
2021/10/24 09:25:12;;;;;;;1.60;1.20;;;10.10;98.20;;;;;;5020067;28;20483;-77
2021/10/24 09:27:48;;;;;;;1.60;1.20;;;10.20;98.20;;;;;;5021568;28;20498;-76
2021/10/24 09:30:17;;;;;;;1.60;1.10;;;10.20;97.70;;;;;;5017576;28;20653;-78
2021/10/24 09:32:49;;;;;;;1.60;1.20;;;10.20;98.10;;;;;;5024566;28;20490;-75
2021/10/24 09:35:16;;;;;;;1.60;1.20;;;10.30;97.60;;;;;;5013010;28;20967;-79
2021/10/24 09:37:49;;;;;;;1.60;1.20;;;10.30;97.00;;;;;;5001188;28;20499;-75
2021/10/24 09:40:17;;;;;;;1.60;1.10;;;10.40;96.90;;;;;;5016518;28;20475;-75
2021/10/24 09:42:45;;;;;;;1.60;1.20;;;10.40;97.50;;;;;;5006259;28;20490;-74
2021/10/24 09:45:13;;;;;;;1.60;1.20;;;10.40;97.00;;;;;;5011090;28;20958;-75
2021/10/24 09:47:42;;;;;;;1.60;1.20;;;10.50;96.80;;;;;;5023316;28;20950;-75
2021/10/24 09:50:10;;;;;;;1.60;1.10;;;10.60;96.70;;;;;;5017559;28;20455;-76
2021/10/24 09:52:38;;;;;;;1.60;1.10;;;10.70;96.80;;;;;;5023620;28;20490;-74
2021/10/24 09:55:16;;;;;;;1.60;1.20;;;10.70;96.00;;;;;;5012742;28;20470;-73
2021/10/24 09:57:44;;;;;;;1.60;1.20;;;10.70;95.00;;;;;;5001997;28;20484;-75
2021/10/24 10:00:12;;;;;;;1.60;1.10;;;10.70;95.60;;;;;;5011221;28;20459;-76
2021/10/24 10:02:39;;;;;;;1.60;1.20;;;10.80;96.30;;;;;;5025168;28;20580;-75
2021/10/24 10:05:06;;;;;;;1.60;1.10;;;10.80;96.00;;;;;;5016004;28;20488;-75
2021/10/24 10:07:33;;;;;;;1.60;1.20;;;10.90;95.80;;;;;;5021049;28;20513;-76
2021/10/24 10:10:01;;;;;;;1.60;1.20;;;11.00;95.40;;;;;;5015361;28;20467;-76
2021/10/24 10:12:34;;;;;;;1.60;1.20;;;11.10;95.70;;;;;;5021260;28;20568;-76
2021/10/24 10:15:02;;;;;;;1.57;1.10;;;11.20;95.60;;;;;;5018263;28;20982;-76
2021/10/24 10:17:30;;;;;;;1.60;1.20;;;11.20;93.70;;;;;;5021409;28;20613;-75
2021/10/24 10:19:56;;;;;;;1.60;1.20;;;11.30;94.30;;;;;;5021077;28;20464;-77
2021/10/24 10:22:29;;;;;;;1.60;1.20;;;11.30;93.40;;;;;;5022953;28;20492;-76
2021/10/24 10:24:58;;;;;;;1.50;1.00;;;11.40;94.00;;;;;;5019919;28;20526;-75
2021/10/24 10:27:45;;;;;;;1.60;1.20;;;11.40;94.00;;;;;;5022771;28;21234;-75
2021/10/24 10:30:15;;;;;;;1.60;1.03;;;11.50;93.10;;;;;;5020075;28;21010;-76
2021/10/24 10:32:44;;;;;;;1.60;1.10;;;11.50;93.60;;;;;;5008063;28;20938;-75
2021/10/24 10:35:12;;;;;;;1.57;1.10;;;11.60;92.90;;;;;;5013466;28;20459;-75
2021/10/24 10:37:47;;;;;;;1.50;1.00;;;11.60;93.60;;;;;;5026064;28;20928;-77
2021/10/24 10:40:14;;;;;;;1.57;1.10;;;11.60;92.90;;;;;;5017039;28;20525;-74
2021/10/24 10:42:57;;;;;;;1.60;1.10;;;11.70;92.90;;;;;;5024309;28;20478;-76
2021/10/24 10:45:26;;;;;;;1.57;1.10;;;11.70;91.90;;;;;;5023053;28;21014;-74
2021/10/24 10:47:55;;;;;;;1.57;1.10;;;11.80;91.90;;;;;;5011101;28;20593;-75
2021/10/24 10:50:49;;;;;;;1.60;1.10;;;11.80;91.70;;;;;;5017541;28;20510;-73
2021/10/24 10:53:51;;;;;;;1.60;1.00;;;12.00;91.80;;;;;;5005534;28;20993;-74
2021/10/24 10:56:24;;;;;;;1.53;1.10;;;12.10;91.90;;;;;;5015223;28;20564;-76
2021/10/24 10:58:53;;;;;;;1.57;1.03;;;12.20;90.30;;;;;;5022301;28;20491;-76
2021/10/24 11:01:29;;;;;;;1.50;1.00;;;12.20;89.90;;;;;;5001794;28;20491;-77
2021/10/24 11:04:13;;;;;;;1.57;1.10;;;12.20;91.30;;;;;;5020296;28;20513;-76
2021/10/24 11:06:59;;;;;;;1.53;1.10;;;12.30;91.60;;;;;;5014222;28;20550;-76
2021/10/24 11:09:53;;;;;;;1.53;1.20;;;12.30;89.80;;;;;;5026022;28;20463;-75
2021/10/24 11:12:40;;;;;;;1.57;1.10;;;12.50;90.30;;;;;;5017178;28;21069;-76
2021/10/24 11:15:29;;;;;;;1.60;1.13;;;12.50;89.60;;;;;;5016204;28;20561;-75
2021/10/24 11:17:58;;;;;;;1.53;1.10;;;12.50;89.20;;;;;;5026654;28;20498;-74
2021/10/24 11:20:27;;;;;;;1.60;1.10;;;12.50;89.00;;;;;;5014602;28;20848;-75
2021/10/24 11:22:58;;;;;;;1.60;1.10;;;12.60;90.50;;;;;;5028744;28;20525;-75
2021/10/24 11:25:33;;;;;;;1.57;1.10;;;12.70;90.00;;;;;;5018499;28;20556;-74
2021/10/24 11:28:09;;;;;;;1.50;1.03;;;12.70;90.30;;;;;;5026027;28;20504;-74
2021/10/24 11:30:39;;;;;;;1.53;1.00;;;12.90;90.60;;;;;;5019038;28;20455;-76
2021/10/24 11:33:07;;;;;;;1.57;1.10;;;12.90;90.30;;;;;;5024924;28;20482;-75
2021/10/24 11:35:39;;;;;;;1.53;1.10;;;13.00;90.60;;;;;;5018559;28;20490;-75
2021/10/24 11:38:09;;;;;;;1.60;1.10;;;13.10;89.30;;;;;;5000457;28;20496;-74
2021/10/24 11:40:40;;;;;;;1.53;1.10;;;13.20;88.90;;;;;;5017691;28;20467;-74
2021/10/24 11:43:10;;;;;;;1.53;1.10;;;13.20;88.00;;;;;;5027721;28;20487;-77
2021/10/24 11:45:40;;;;;;;1.57;1.07;;;13.20;88.40;;;;;;5013506;28;20506;-76
2021/10/24 11:48:11;;;;;;;1.57;1.10;;;13.30;89.30;;;;;;5026123;28;20485;-74
2021/10/24 11:50:46;;;;;;;1.50;1.00;;;13.40;88.50;;;;;;5014629;28;20518;-77
2021/10/24 11:53:17;;;;;;;1.50;1.00;;;13.50;88.10;;;;;;5005446;28;20579;-76
2021/10/24 11:55:45;;;;;;;1.57;1.10;;;13.50;87.00;;;;;;5011356;28;20526;-76
2021/10/24 11:58:23;;;;;;;1.57;1.00;;;13.60;88.70;;;;;;5001985;28;20483;-77
2021/10/24 12:01:04;;;;;;;1.60;1.30;;;13.70;88.00;;;;;;5005224;28;20950;-75
2021/10/24 12:03:32;;;;;;;1.60;1.03;;;13.80;86.10;;;;;;5015910;28;20468;-76
2021/10/24 12:05:59;;;;;;;1.50;1.00;;;13.80;86.40;;;;;;5010652;28;20615;-77
2021/10/24 12:08:57;;;;;;;1.57;1.03;;;13.90;86.00;;;;;;5035585;28;20519;-76
2021/10/24 12:11:43;;;;;;;1.53;1.10;;;14.00;87.40;;;;;;5013712;28;20490;-76
2021/10/24 12:14:11;;;;;;;1.60;1.10;;;14.10;86.60;;;;;;5026414;28;20548;-75
2021/10/24 12:16:42;;;;;;;1.60;1.13;;;14.10;86.00;;;;;;5019060;28;20514;-76
2021/10/24 12:19:14;;;;;;;1.60;1.00;;;14.20;87.20;;;;;;5027225;28;20471;-75
2021/10/24 12:21:41;;;;;;;1.53;1.00;;;14.30;85.30;;;;;;5012417;28;20926;-76
2021/10/24 12:24:19;;;;;;;1.50;1.00;;;14.40;85.10;;;;;;5032428;28;20467;-76
2021/10/24 12:26:46;;;;;;;1.53;1.00;;;14.50;85.10;;;;;;5015600;28;20529;-76
2021/10/24 12:29:14;;;;;;;1.60;1.00;;;14.60;84.00;;;;;;5024137;28;20467;-76
2021/10/24 12:31:42;;;;;;;1.53;1.00;;;14.70;84.60;;;;;;5002550;28;20491;-77
2021/10/24 12:34:14;;;;;;;1.70;1.50;;;14.70;84.10;;;;;;5010288;28;20503;-77
2021/10/24 12:36:42;;;;;;;1.53;1.00;;;14.80;82.60;;;;;;5006918;28;20487;-77
2021/10/24 12:39:20;;;;;;;1.57;1.00;;;14.80;81.80;;;;;;5010805;28;20469;-76
2021/10/24 12:41:48;;;;;;;1.57;1.00;;;14.80;83.40;;;;;;5007785;28;20482;-76
2021/10/24 12:44:17;;;;;;;1.50;0.90;;;14.90;83.30;;;;;;5017346;28;20468;-77
2021/10/24 12:46:46;;;;;;;1.60;1.00;;;15.00;82.40;;;;;;5014674;28;20492;-76
2021/10/24 12:49:14;;;;;;;1.57;1.00;;;15.00;83.90;;;;;;5024685;28;21068;-76
2021/10/24 12:51:43;;;;;;;1.53;0.97;;;15.20;82.70;;;;;;5012640;28;20919;-75
2021/10/24 12:54:11;;;;;;;1.53;1.00;;;15.20;82.00;;;;;;5028493;28;20491;-76
2021/10/24 12:56:40;;;;;;;1.60;1.00;;;15.30;83.10;;;;;;5008223;28;21017;-76
2021/10/24 12:59:08;;;;;;;1.57;0.90;;;15.40;82.30;;;;;;5012913;28;20472;-76
2021/10/24 13:01:36;;;;;;;1.53;1.00;;;15.50;82.70;;;;;;5013940;28;20478;-76
2021/10/24 13:04:05;;;;;;;1.50;0.90;;;15.50;81.50;;;;;;5025110;28;20460;-76